sensor_id;sensor_type;location;lat;lon;timestamp;pressure;altitude;pressure_sealevel;temperature;humidity
82041;BME280;71612;44.776;20.472;2023-08-06T00:01:25;98763.75;;;30.96;39.48
82041;BME280;71612;44.776;20.472;2023-08-06T00:03:51;98747.22;;;30.93;39.44
82041;BME280;71612;44.776;20.472;2023-08-06T00:06:16;98742.84;;;30.92;39.92
82041;BME280;71612;44.776;20.472;2023-08-06T00:08:42;98734.53;;;30.84;39.67
82041;BME280;71612;44.776;20.472;2023-08-06T00:11:07;98740.09;;;30.92;40.26
82041;BME280;71612;44.776;20.472;2023-08-06T00:13:32;98730.25;;;30.91;39.55
82041;BME280;71612;44.776;20.472;2023-08-06T00:16:11;98732.63;;;30.92;40.28
82041;BME280;71612;44.776;20.472;2023-08-06T00:18:38;98736.16;;;30.89;40.03
82041;BME280;71612;44.776;20.472;2023-08-06T00:21:03;98710.53;;;30.81;39.63
82041;BME280;71612;44.776;20.472;2023-08-06T00:23:29;98717.28;;;30.88;40.35
82041;BME280;71612;44.776;20.472;2023-08-06T00:25:54;98702.28;;;30.85;39.92
82041;BME280;71612;44.776;20.472;2023-08-06T00:28:20;98679.00;;;30.75;39.50
82041;BME280;71612;44.776;20.472;2023-08-06T00:30:45;98688.91;;;30.83;40.14
82041;BME280;71612;44.776;20.472;2023-08-06T00:33:10;98682.59;;;30.79;40.04
82041;BME280;71612;44.776;20.472;2023-08-06T00:35:36;98671.19;;;30.81;40.06
82041;BME280;71612;44.776;20.472;2023-08-06T00:38:01;98661.31;;;30.80;40.06
82041;BME280;71612;44.776;20.472;2023-08-06T00:40:27;98667.22;;;30.78;40.35
82041;BME280;71612;44.776;20.472;2023-08-06T00:42:55;98663.69;;;30.78;39.43
82041;BME280;71612;44.776;20.472;2023-08-06T00:45:21;98634.91;;;30.65;39.44
82041;BME280;71612;44.776;20.472;2023-08-06T00:47:47;98578.16;;;30.36;40.19
82041;BME280;71612;44.776;20.472;2023-08-06T00:50:13;98630.22;;;30.72;40.14
82041;BME280;71612;44.776;20.472;2023-08-06T00:52:38;98634.94;;;30.75;40.06
82041;BME280;71612;44.776;20.472;2023-08-06T00:55:05;98619.19;;;30.65;39.82
82041;BME280;71612;44.776;20.472;2023-08-06T00:57:31;98625.88;;;30.71;40.07
82041;BME280;71612;44.776;20.472;2023-08-06T00:59:57;98637.69;;;30.72;39.40
82041;BME280;71612;44.776;20.472;2023-08-06T01:02:23;98635.69;;;30.65;40.01
82041;BME280;71612;44.776;20.472;2023-08-06T01:04:49;98651.06;;;30.70;39.63
82041;BME280;71612;44.776;20.472;2023-08-06T01:10:36;98631.72;;;30.56;40.25
82041;BME280;71612;44.776;20.472;2023-08-06T01:13:24;98648.75;;;30.79;39.72
82041;BME280;71612;44.776;20.472;2023-08-06T01:15:55;98638.88;;;30.71;39.38
82041;BME280;71612;44.776;20.472;2023-08-06T01:18:25;98639.28;;;30.73;39.36
82041;BME280;71612;44.776;20.472;2023-08-06T01:20:51;98636.13;;;30.71;39.91
82041;BME280;71612;44.776;20.472;2023-08-06T01:23:17;98642.00;;;30.66;39.79
82041;BME280;71612;44.776;20.472;2023-08-06T01:28:43;98640.41;;;30.61;39.42
82041;BME280;71612;44.776;20.472;2023-08-06T01:31:26;98634.16;;;30.71;39.46
82041;BME280;71612;44.776;20.472;2023-08-06T01:33:52;98629.44;;;30.72;39.75
82041;BME280;71612;44.776;20.472;2023-08-06T01:36:20;98622.72;;;30.66;39.03
82041;BME280;71612;44.776;20.472;2023-08-06T01:38:46;98625.09;;;30.67;39.26
82041;BME280;71612;44.776;20.472;2023-08-06T01:41:12;98621.13;;;30.61;39.63
82041;BME280;71612;44.776;20.472;2023-08-06T01:43:37;98623.50;;;30.63;39.33
82041;BME280;71612;44.776;20.472;2023-08-06T01:46:02;98616.78;;;30.57;39.47
82041;BME280;71612;44.776;20.472;2023-08-06T01:48:28;98615.22;;;30.59;39.53
82041;BME280;71612;44.776;20.472;2023-08-06T01:50:53;98605.78;;;30.57;39.99
82041;BME280;71612;44.776;20.472;2023-08-06T01:53:19;98604.97;;;30.56;39.56
82041;BME280;71612;44.776;20.472;2023-08-06T01:55:48;98607.72;;;30.56;39.28
82041;BME280;71612;44.776;20.472;2023-08-06T01:58:14;98596.31;;;30.54;40.15
82041;BME280;71612;44.776;20.472;2023-08-06T02:00:40;98592.38;;;30.52;39.59
82041;BME280;71612;44.776;20.472;2023-08-06T02:03:05;98573.47;;;30.43;39.63
82041;BME280;71612;44.776;20.472;2023-08-06T02:05:31;98583.72;;;30.50;40.20
82041;BME280;71612;44.776;20.472;2023-08-06T02:07:56;98581.34;;;30.48;39.85
82041;BME280;71612;44.776;20.472;2023-08-06T02:10:22;98593.56;;;30.47;39.52
82041;BME280;71612;44.776;20.472;2023-08-06T02:12:47;98597.47;;;30.46;39.42
82041;BME280;71612;44.776;20.472;2023-08-06T02:15:13;98585.22;;;30.37;39.52
82041;BME280;71612;44.776;20.472;2023-08-06T02:17:38;98586.44;;;30.43;39.41
82041;BME280;71612;44.776;20.472;2023-08-06T02:20:04;98577.41;;;30.42;39.73
82041;BME280;71612;44.776;20.472;2023-08-06T02:22:30;98567.91;;;30.33;40.14
82041;BME280;71612;44.776;20.472;2023-08-06T02:24:55;98589.16;;;30.39;39.87
82041;BME280;71612;44.776;20.472;2023-08-06T02:27:20;98580.91;;;30.39;40.01
82041;BME280;71612;44.776;20.472;2023-08-06T02:29:46;98569.91;;;30.39;39.69
82041;BME280;71612;44.776;20.472;2023-08-06T02:32:11;98558.09;;;30.32;39.87
82041;BME280;71612;44.776;20.472;2023-08-06T02:34:37;98551.34;;;30.26;39.96
82041;BME280;71612;44.776;20.472;2023-08-06T02:37:02;98567.53;;;30.34;40.34
82041;BME280;71612;44.776;20.472;2023-08-06T02:39:28;98569.81;;;30.29;39.41
82041;BME280;71612;44.776;20.472;2023-08-06T02:41:53;98559.97;;;30.21;39.91
82041;BME280;71612;44.776;20.472;2023-08-06T02:44:18;98569.41;;;30.27;39.54
82041;BME280;71612;44.776;20.472;2023-08-06T02:46:44;98582.06;;;30.31;40.20
82041;BME280;71612;44.776;20.472;2023-08-06T02:49:10;98555.22;;;30.14;39.83
82041;BME280;71612;44.776;20.472;2023-08-06T02:51:35;98563.13;;;30.23;39.63
82041;BME280;71612;44.776;20.472;2023-08-06T02:54:01;98571.78;;;30.28;40.03
82041;BME280;71612;44.776;20.472;2023-08-06T02:56:26;98553.25;;;30.14;39.94
82041;BME280;71612;44.776;20.472;2023-08-06T02:58:52;98567.84;;;30.26;39.95
82041;BME280;71612;44.776;20.472;2023-08-06T03:01:17;98571.72;;;30.17;40.19
82041;BME280;71612;44.776;20.472;2023-08-06T03:03:43;98577.22;;;30.17;39.65
82041;BME280;71612;44.776;20.472;2023-08-06T03:06:08;98587.47;;;30.24;39.67
82041;BME280;71612;44.776;20.472;2023-08-06T03:08:33;98584.31;;;30.22;40.33
82041;BME280;71612;44.776;20.472;2023-08-06T03:10:59;98575.22;;;30.11;40.35
82041;BME280;71612;44.776;20.472;2023-08-06T03:13:24;98572.47;;;30.11;39.67
82041;BME280;71612;44.776;20.472;2023-08-06T03:15:55;98576.03;;;30.15;39.56
82041;BME280;71612;44.776;20.472;2023-08-06T03:18:21;98596.13;;;30.19;40.16
82041;BME280;71612;44.776;20.472;2023-08-06T03:20:47;98598.47;;;30.17;39.94
82041;BME280;71612;44.776;20.472;2023-08-06T03:23:12;98564.97;;;30.04;39.73
82041;BME280;71612;44.776;20.472;2023-08-06T03:25:37;98575.59;;;30.09;39.58
82041;BME280;71612;44.776;20.472;2023-08-06T03:28:03;98567.75;;;30.08;39.91
82041;BME280;71612;44.776;20.472;2023-08-06T03:30:28;98566.59;;;30.12;40.36
82041;BME280;71612;44.776;20.472;2023-08-06T03:32:54;98566.59;;;30.12;40.14
82041;BME280;71612;44.776;20.472;2023-08-06T03:35:20;98570.91;;;30.13;39.81
82041;BME280;71612;44.776;20.472;2023-08-06T03:37:45;98567.75;;;30.11;40.25
82041;BME280;71612;44.776;20.472;2023-08-06T03:40:11;98570.09;;;30.09;40.29
82041;BME280;71612;44.776;20.472;2023-08-06T03:42:36;98546.38;;;29.87;39.77
82041;BME280;71612;44.776;20.472;2023-08-06T03:45:02;98587.00;;;30.11;39.63
82041;BME280;71612;44.776;20.472;2023-08-06T03:47:28;98573.94;;;29.98;39.96
82041;BME280;71612;44.776;20.472;2023-08-06T03:49:53;98598.38;;;30.06;39.49
82041;BME280;71612;44.776;20.472;2023-08-06T03:52:18;98584.94;;;29.98;40.24
82041;BME280;71612;44.776;20.472;2023-08-06T03:54:44;98600.72;;;30.04;39.85
82041;BME280;71612;44.776;20.472;2023-08-06T03:57:09;98594.06;;;30.05;39.83
82041;BME280;71612;44.776;20.472;2023-08-06T03:59:35;98594.44;;;30.04;39.88
82041;BME280;71612;44.776;20.472;2023-08-06T04:02:01;98583.03;;;30.02;40.12
82041;BME280;71612;44.776;20.472;2023-08-06T04:04:26;98591.28;;;30.02;40.12
82041;BME280;71612;44.776;20.472;2023-08-06T04:06:52;98588.53;;;30.02;39.66
82041;BME280;71612;44.776;20.472;2023-08-06T04:09:17;98584.59;;;29.99;39.70
82041;BME280;71612;44.776;20.472;2023-08-06T04:11:42;98583.41;;;30.00;39.67
82041;BME280;71612;44.776;20.472;2023-08-06T04:14:08;98587.34;;;29.99;40.20
82041;BME280;71612;44.776;20.472;2023-08-06T04:16:33;98585.75;;;29.98;39.77
82041;BME280;71612;44.776;20.472;2023-08-06T04:18:59;98591.25;;;29.98;40.12
82041;BME280;71612;44.776;20.472;2023-08-06T04:21:24;98590.44;;;29.98;40.05
82041;BME280;71612;44.776;20.472;2023-08-06T04:23:49;98588.47;;;29.95;39.97
82041;BME280;71612;44.776;20.472;2023-08-06T04:26:15;98581.78;;;29.96;40.06
82041;BME280;71612;44.776;20.472;2023-08-06T04:28:40;98585.34;;;29.96;39.95
82041;BME280;71612;44.776;20.472;2023-08-06T04:31:06;98578.28;;;29.95;40.32
82041;BME280;71612;44.776;20.472;2023-08-06T04:33:31;98556.16;;;29.81;40.39
82041;BME280;71612;44.776;20.472;2023-08-06T04:35:57;98551.06;;;29.83;40.33
82041;BME280;71612;44.776;20.472;2023-08-06T04:38:24;98560.13;;;29.87;40.00
82041;BME280;71612;44.776;20.472;2023-08-06T04:40:53;98566.84;;;29.93;40.20
82041;BME280;71612;44.776;20.472;2023-08-06T04:43:18;98563.69;;;29.91;40.19
82041;BME280;71612;44.776;20.472;2023-08-06T04:45:48;98574.72;;;29.95;40.14
82041;BME280;71612;44.776;20.472;2023-08-06T04:48:14;98576.28;;;29.92;39.97
82041;BME280;71612;44.776;20.472;2023-08-06T04:50:46;98585.69;;;29.91;40.13
82041;BME280;71612;44.776;20.472;2023-08-06T04:53:12;98593.16;;;29.91;40.05
82041;BME280;71612;44.776;20.472;2023-08-06T04:55:38;98591.97;;;29.88;40.11
82041;BME280;71612;44.776;20.472;2023-08-06T04:58:04;98586.06;;;29.86;40.14
82041;BME280;71612;44.776;20.472;2023-08-06T05:00:29;98590.00;;;29.89;40.06
82041;BME280;71612;44.776;20.472;2023-08-06T05:02:55;98558.09;;;29.74;40.50
82041;BME280;71612;44.776;20.472;2023-08-06T05:05:20;98580.19;;;29.88;40.59
82041;BME280;71612;44.776;20.472;2023-08-06T05:07:49;98584.50;;;29.89;40.35
82041;BME280;71612;44.776;20.472;2023-08-06T05:10:15;98587.63;;;29.87;40.87
82041;BME280;71612;44.776;20.472;2023-08-06T05:12:40;98580.91;;;29.78;40.65
82041;BME280;71612;44.776;20.472;2023-08-06T05:15:06;98582.09;;;29.80;40.59
82041;BME280;71612;44.776;20.472;2023-08-06T05:17:34;98582.88;;;29.81;40.56
82041;BME280;71612;44.776;20.472;2023-08-06T05:19:59;98589.91;;;29.78;40.41
82041;BME280;71612;44.776;20.472;2023-08-06T05:22:25;98582.44;;;29.75;41.10
82041;BME280;71612;44.776;20.472;2023-08-06T05:24:51;98610.00;;;29.86;40.46
82041;BME280;71612;44.776;20.472;2023-08-06T05:27:16;98605.66;;;29.85;40.45
82041;BME280;71612;44.776;20.472;2023-08-06T05:29:44;98608.41;;;29.85;40.45
82041;BME280;71612;44.776;20.472;2023-08-06T05:32:09;98610.41;;;29.84;40.91
82041;BME280;71612;44.776;20.472;2023-08-06T05:34:35;98602.06;;;29.74;41.05
82041;BME280;71612;44.776;20.472;2023-08-06T05:37:00;98623.75;;;29.82;40.87
82041;BME280;71612;44.776;20.472;2023-08-06T05:39:26;98628.84;;;29.84;41.19
82041;BME280;71612;44.776;20.472;2023-08-06T05:41:51;98598.03;;;29.64;40.78
82041;BME280;71612;44.776;20.472;2023-08-06T05:44:17;98624.09;;;29.81;40.97
82041;BME280;71612;44.776;20.472;2023-08-06T05:46:43;98616.63;;;29.78;40.87
82041;BME280;71612;44.776;20.472;2023-08-06T05:49:08;98624.09;;;29.81;41.14
82041;BME280;71612;44.776;20.472;2023-08-06T05:51:33;98617.38;;;29.75;40.94
82041;BME280;71612;44.776;20.472;2023-08-06T05:53:59;98614.19;;;29.73;41.52
82041;BME280;71612;44.776;20.472;2023-08-06T05:56:24;98615.75;;;29.70;41.31
82041;BME280;71612;44.776;20.472;2023-08-06T05:58:50;98630.78;;;29.80;41.77
82041;BME280;71612;44.776;20.472;2023-08-06T06:01:18;98625.56;;;29.71;41.66
82041;BME280;71612;44.776;20.472;2023-08-06T06:03:43;98614.19;;;29.73;41.81
82041;BME280;71612;44.776;20.472;2023-08-06T06:06:09;98630.41;;;29.81;41.97
82041;BME280;71612;44.776;20.472;2023-08-06T06:08:34;98630.72;;;29.76;41.90
82041;BME280;71612;44.776;20.472;2023-08-06T06:10:59;98633.13;;;29.78;41.98
82041;BME280;71612;44.776;20.472;2023-08-06T06:13:25;98628.72;;;29.73;42.07
82041;BME280;71612;44.776;20.472;2023-08-06T06:15:54;98641.00;;;29.83;41.87
82041;BME280;71612;44.776;20.472;2023-08-06T06:18:19;98640.59;;;29.81;42.04
82041;BME280;71612;44.776;20.472;2023-08-06T06:20:45;98644.94;;;29.82;41.68
82041;BME280;71612;44.776;20.472;2023-08-06T06:23:10;98653.56;;;29.80;42.11
82041;BME280;71612;44.776;20.472;2023-08-06T06:25:36;98642.06;;;29.71;41.95
82041;BME280;71612;44.776;20.472;2023-08-06T06:28:01;98659.47;;;29.82;41.95
82041;BME280;71612;44.776;20.472;2023-08-06T06:30:27;98655.13;;;29.78;42.29
82041;BME280;71612;44.776;20.472;2023-08-06T06:32:52;98662.59;;;29.81;42.22
82041;BME280;71612;44.776;20.472;2023-08-06T06:35:17;98659.84;;;29.81;42.64
82041;BME280;71612;44.776;20.472;2023-08-06T06:37:43;98646.06;;;29.74;42.76
82041;BME280;71612;44.776;20.472;2023-08-06T06:40:09;98637.72;;;29.67;42.79
82041;BME280;71612;44.776;20.472;2023-08-06T06:42:34;98632.59;;;29.65;43.04
82041;BME280;71612;44.776;20.472;2023-08-06T06:45:00;98665.34;;;29.81;43.03
82041;BME280;71612;44.776;20.472;2023-08-06T06:47:25;98663.38;;;29.81;42.60
82041;BME280;71612;44.776;20.472;2023-08-06T06:49:51;98650.69;;;29.70;42.48
82041;BME280;71612;44.776;20.472;2023-08-06T06:52:16;98665.34;;;29.81;42.88
82041;BME280;71612;44.776;20.472;2023-08-06T06:54:43;98666.13;;;29.81;42.89
82041;BME280;71612;44.776;20.472;2023-08-06T06:57:08;98644.34;;;29.66;42.47
82041;BME280;71612;44.776;20.472;2023-08-06T06:59:34;98667.31;;;29.80;42.96
82041;BME280;71612;44.776;20.472;2023-08-06T07:01:59;98668.09;;;29.81;42.82
82041;BME280;71612;44.776;20.472;2023-08-06T07:04:24;98667.31;;;29.80;42.66
82041;BME280;71612;44.776;20.472;2023-08-06T07:06:50;98675.56;;;29.80;43.04
82041;BME280;71612;44.776;20.472;2023-08-06T07:09:17;98668.88;;;29.78;43.58
82041;BME280;71612;44.776;20.472;2023-08-06T07:11:42;98674.38;;;29.81;43.23
82041;BME280;71612;44.776;20.472;2023-08-06T07:14:09;98668.81;;;29.74;43.23
82041;BME280;71612;44.776;20.472;2023-08-06T07:16:34;98679.88;;;29.81;43.21
82041;BME280;71612;44.776;20.472;2023-08-06T07:19:00;98682.63;;;29.81;43.53
82041;BME280;71612;44.776;20.472;2023-08-06T07:21:25;98681.84;;;29.81;43.23
82041;BME280;71612;44.776;20.472;2023-08-06T07:23:51;98671.91;;;29.73;43.83
82041;BME280;71612;44.776;20.472;2023-08-06T07:26:16;98675.09;;;29.75;43.43
82041;BME280;71612;44.776;20.472;2023-08-06T07:28:42;98690.09;;;29.81;43.60
82041;BME280;71612;44.776;20.472;2023-08-06T07:31:07;98673.53;;;29.74;43.19
82041;BME280;71612;44.776;20.472;2023-08-06T07:33:33;98686.97;;;29.82;43.44
82041;BME280;71612;44.776;20.472;2023-08-06T07:35:58;98685.38;;;29.81;43.29
82041;BME280;71612;44.776;20.472;2023-08-06T07:38:24;98683.38;;;29.78;43.78
82041;BME280;71612;44.776;20.472;2023-08-06T07:40:49;98677.00;;;29.71;43.47
82041;BME280;71612;44.776;20.472;2023-08-06T07:43:14;98675.53;;;29.77;43.82
82041;BME280;71612;44.776;20.472;2023-08-06T07:45:40;98693.28;;;29.86;44.23
82041;BME280;71612;44.776;20.472;2023-08-06T07:48:05;98690.16;;;29.88;43.98
82041;BME280;71612;44.776;20.472;2023-08-06T07:50:31;98687.00;;;29.89;44.21
82041;BME280;71612;44.776;20.472;2023-08-06T07:52:57;98690.97;;;29.92;43.88
82041;BME280;71612;44.776;20.472;2023-08-06T07:55:22;98685.88;;;29.90;44.32
82041;BME280;71612;44.776;20.472;2023-08-06T07:57:47;98692.56;;;29.93;44.09
82041;BME280;71612;44.776;20.472;2023-08-06T08:00:13;98687.06;;;29.93;44.00
82041;BME280;71612;44.776;20.472;2023-08-06T08:02:38;98691.03;;;29.95;43.42
82041;BME280;71612;44.776;20.472;2023-08-06T08:05:04;98693.34;;;29.93;43.72
82041;BME280;71612;44.776;20.472;2023-08-06T08:07:30;98682.72;;;29.92;44.20
82041;BME280;71612;44.776;20.472;2023-08-06T08:09:56;98689.03;;;29.96;43.98
82041;BME280;71612;44.776;20.472;2023-08-06T08:12:22;98686.28;;;29.96;43.94
82041;BME280;71612;44.776;20.472;2023-08-06T08:14:48;98685.94;;;29.97;43.64
82041;BME280;71612;44.776;20.472;2023-08-06T08:17:13;98676.78;;;29.86;44.32
82041;BME280;71612;44.776;20.472;2023-08-06T08:19:40;98700.09;;;29.99;44.07
82041;BME280;71612;44.776;20.472;2023-08-06T08:22:05;98687.50;;;29.98;43.84
82041;BME280;71612;44.776;20.472;2023-08-06T08:24:31;98699.69;;;30.01;43.50
82041;BME280;71612;44.776;20.472;2023-08-06T08:26:56;98708.75;;;30.01;43.95
82041;BME280;71612;44.776;20.472;2023-08-06T08:29:22;98702.44;;;30.01;44.32
82041;BME280;71612;44.776;20.472;2023-08-06T08:31:48;98693.34;;;29.93;43.89
82041;BME280;71612;44.776;20.472;2023-08-06T08:34:17;98707.09;;;29.93;44.02
82041;BME280;71612;44.776;20.472;2023-08-06T08:36:43;98704.44;;;30.04;43.87
82041;BME280;71612;44.776;20.472;2023-08-06T08:39:08;98705.53;;;29.96;43.28
82041;BME280;71612;44.776;20.472;2023-08-06T08:41:35;98706.34;;;29.96;43.31
82041;BME280;71612;44.776;20.472;2023-08-06T08:44:02;98711.09;;;30.03;43.67
82041;BME280;71612;44.776;20.472;2023-08-06T08:46:29;98704.38;;;29.97;43.84
82041;BME280;71612;44.776;20.472;2023-08-06T08:48:56;98710.28;;;29.99;43.75
82041;BME280;71612;44.776;20.472;2023-08-06T08:51:23;98706.75;;;29.98;43.38
82041;BME280;71612;44.776;20.472;2023-08-06T08:53:49;98708.69;;;29.98;43.32
82041;BME280;71612;44.776;20.472;2023-08-06T08:56:17;98713.88;;;30.06;43.74
82041;BME280;71612;44.776;20.472;2023-08-06T08:58:42;98717.81;;;30.05;42.95
82041;BME280;71612;44.776;20.472;2023-08-06T09:01:08;98706.41;;;30.03;43.43
82041;BME280;71612;44.776;20.472;2023-08-06T09:03:36;98708.78;;;30.08;43.28
82041;BME280;71612;44.776;20.472;2023-08-06T09:06:01;98706.84;;;30.09;43.25
82041;BME280;71612;44.776;20.472;2023-08-06T09:08:34;98702.13;;;30.09;43.00
82041;BME280;71612;44.776;20.472;2023-08-06T09:11:01;98696.19;;;30.04;43.22
82041;BME280;71612;44.776;20.472;2023-08-06T09:13:28;98699.72;;;30.04;42.76
82041;BME280;71612;44.776;20.472;2023-08-06T09:15:53;98701.34;;;30.09;42.90
82041;BME280;71612;44.776;20.472;2023-08-06T09:18:26;98709.66;;;30.16;42.82
82041;BME280;71612;44.776;20.472;2023-08-06T09:20:55;98697.44;;;30.13;42.82
82041;BME280;71612;44.776;20.472;2023-08-06T09:23:27;98674.94;;;30.01;42.78
82041;BME280;71612;44.776;20.472;2023-08-06T09:25:54;98697.06;;;30.15;42.85
82041;BME280;71612;44.776;20.472;2023-08-06T09:28:20;98695.91;;;30.16;42.54
82041;BME280;71612;44.776;20.472;2023-08-06T09:30:47;98686.03;;;30.11;42.91
82041;BME280;71612;44.776;20.472;2023-08-06T09:33:17;98687.63;;;30.16;42.50
82041;BME280;71612;44.776;20.472;2023-08-06T09:35:43;98697.09;;;30.19;42.61
82041;BME280;71612;44.776;20.472;2023-08-06T09:38:10;98687.25;;;30.17;42.95
82041;BME280;71612;44.776;20.472;2023-08-06T09:40:37;98692.00;;;30.21;42.20
82041;BME280;71612;44.776;20.472;2023-08-06T09:43:03;98700.25;;;30.21;42.81
82041;BME280;71612;44.776;20.472;2023-08-06T09:45:32;98693.97;;;30.20;42.47
82041;BME280;71612;44.776;20.472;2023-08-06T09:47:58;98688.06;;;30.22;42.35
82041;BME280;71612;44.776;20.472;2023-08-06T09:50:29;98692.03;;;30.24;43.09
82041;BME280;71612;44.776;20.472;2023-08-06T09:52:56;98687.72;;;30.23;42.93
82041;BME280;71612;44.776;20.472;2023-08-06T09:55:21;98683.34;;;30.22;42.99
82041;BME280;71612;44.776;20.472;2023-08-06T09:57:49;98670.81;;;30.25;42.58
82041;BME280;71612;44.776;20.472;2023-08-06T10:00:16;98679.44;;;30.23;42.01
82041;BME280;71612;44.776;20.472;2023-08-06T10:02:42;98673.16;;;30.23;42.08
82041;BME280;71612;44.776;20.472;2023-08-06T10:05:09;98667.66;;;30.23;42.26
82041;BME280;71612;44.776;20.472;2023-08-06T10:07:35;98649.53;;;30.14;42.09
82041;BME280;71612;44.776;20.472;2023-08-06T10:10:02;98664.50;;;30.21;42.17
82041;BME280;71612;44.776;20.472;2023-08-06T10:12:34;98640.47;;;30.14;41.75
82041;BME280;71612;44.776;20.472;2023-08-06T10:15:04;98641.22;;;30.11;42.10
82041;BME280;71612;44.776;20.472;2023-08-06T10:17:33;98666.50;;;30.27;42.59
82041;BME280;71612;44.776;20.472;2023-08-06T10:19:59;98664.56;;;30.28;42.32
82041;BME280;71612;44.776;20.472;2023-08-06T10:22:25;98661.00;;;30.27;41.68
82041;BME280;71612;44.776;20.472;2023-08-06T10:24:57;98651.94;;;30.23;41.77
82041;BME280;71612;44.776;20.472;2023-08-06T10:27:32;98661.84;;;30.31;41.51
82041;BME280;71612;44.776;20.472;2023-08-06T10:35:47;98659.50;;;30.33;41.58
82041;BME280;71612;44.776;20.472;2023-08-06T10:46:10;98648.66;;;30.61;40.81
82041;BME280;71612;44.776;20.472;2023-08-06T10:48:38;98654.16;;;30.65;41.17
82041;BME280;71612;44.776;20.472;2023-08-06T10:51:08;98628.13;;;30.48;40.60
82041;BME280;71612;44.776;20.472;2023-08-06T10:53:34;98651.41;;;30.58;40.43
82041;BME280;71612;44.776;20.472;2023-08-06T10:56:01;98656.88;;;30.54;40.59
82041;BME280;71612;44.776;20.472;2023-08-06T10:58:32;98661.63;;;30.57;40.86
82041;BME280;71612;44.776;20.472;2023-08-06T11:00:58;98658.81;;;30.54;40.15
82041;BME280;71612;44.776;20.472;2023-08-06T11:03:24;98657.25;;;30.53;40.63
82041;BME280;71612;44.776;20.472;2023-08-06T11:05:50;98649.75;;;30.46;40.80
82041;BME280;71612;44.776;20.472;2023-08-06T11:08:26;98657.66;;;30.55;41.00
82041;BME280;71612;44.776;20.472;2023-08-06T11:10:51;98654.09;;;30.47;40.32
82041;BME280;71612;44.776;20.472;2023-08-06T11:13:17;98660.41;;;30.51;40.77
82041;BME280;71612;44.776;20.472;2023-08-06T11:15:44;98660.41;;;30.51;40.93
82041;BME280;71612;44.776;20.472;2023-08-06T11:18:10;98665.13;;;30.51;40.82
82041;BME280;71612;44.776;20.472;2023-08-06T11:20:36;98662.38;;;30.51;40.46
82041;BME280;71612;44.776;20.472;2023-08-06T11:23:02;98644.59;;;30.38;40.36
82041;BME280;71612;44.776;20.472;2023-08-06T11:25:27;98660.78;;;30.50;40.53
82041;BME280;71612;44.776;20.472;2023-08-06T11:27:54;98654.50;;;30.49;40.75
82041;BME280;71612;44.776;20.472;2023-08-06T11:30:20;98658.41;;;30.48;40.74
82041;BME280;71612;44.776;20.472;2023-08-06T11:32:46;98662.75;;;30.49;40.60
82041;BME280;71612;44.776;20.472;2023-08-06T11:35:12;98653.31;;;30.47;40.13
82041;BME280;71612;44.776;20.472;2023-08-06T11:37:39;98651.69;;;30.42;40.26
82041;BME280;71612;44.776;20.472;2023-08-06T11:40:09;98664.28;;;30.43;40.81
82041;BME280;71612;44.776;20.472;2023-08-06T11:42:36;98673.75;;;30.49;40.92
82041;BME280;71612;44.776;20.472;2023-08-06T11:45:02;98664.31;;;30.50;40.94
82041;BME280;71612;44.776;20.472;2023-08-06T11:47:29;98665.13;;;30.51;40.63
82041;BME280;71612;44.776;20.472;2023-08-06T11:49:55;98648.16;;;30.45;40.15
82041;BME280;71612;44.776;20.472;2023-08-06T11:52:21;98649.41;;;30.51;40.64
82041;BME280;71612;44.776;20.472;2023-08-06T11:55:07;98648.25;;;30.56;40.28
82041;BME280;71612;44.776;20.472;2023-08-06T11:57:34;98657.66;;;30.55;40.14
82041;BME280;71612;44.776;20.472;2023-08-06T12:00:12;98646.66;;;30.55;40.95
82041;BME280;71612;44.776;20.472;2023-08-06T12:02:42;98660.41;;;30.55;41.05
82041;BME280;71612;44.776;20.472;2023-08-06T12:05:12;98649.41;;;30.55;40.98
82041;BME280;71612;44.776;20.472;2023-08-06T12:07:40;98652.91;;;30.48;40.63
82041;BME280;71612;44.776;20.472;2023-08-06T12:10:07;98662.38;;;30.54;40.32
82041;BME280;71612;44.776;20.472;2023-08-06T12:12:33;98653.69;;;30.49;40.61
82041;BME280;71612;44.776;20.472;2023-08-06T12:14:59;98660.03;;;30.56;40.25
82041;BME280;71612;44.776;20.472;2023-08-06T12:17:24;98671.44;;;30.55;40.71
82041;BME280;71612;44.776;20.472;2023-08-06T12:19:50;98658.03;;;30.50;40.18
82041;BME280;71612;44.776;20.472;2023-08-06T12:22:17;98664.72;;;30.52;40.23
82041;BME280;71612;44.776;20.472;2023-08-06T12:24:44;98652.50;;;30.46;40.59
82041;BME280;71612;44.776;20.472;2023-08-06T12:27:10;98657.25;;;30.53;40.03
82041;BME280;71612;44.776;20.472;2023-08-06T12:29:43;98653.69;;;30.49;40.21
82041;BME280;71612;44.776;20.472;2023-08-06T12:32:10;98658.81;;;30.47;40.31
82041;BME280;71612;44.776;20.472;2023-08-06T12:34:37;98672.63;;;30.57;40.76
82041;BME280;71612;44.776;20.472;2023-08-06T12:37:03;98687.59;;;30.60;40.31
82041;BME280;71612;44.776;20.472;2023-08-06T12:39:28;98663.53;;;30.50;40.47
82041;BME280;71612;44.776;20.472;2023-08-06T12:41:55;98668.28;;;30.53;40.29
82041;BME280;71612;44.776;20.472;2023-08-06T12:44:22;98677.72;;;30.55;40.35
82041;BME280;71612;44.776;20.472;2023-08-06T12:46:48;98688.00;;;30.62;40.21
82041;BME280;71612;44.776;20.472;2023-08-06T12:49:13;98677.34;;;30.60;40.42
82041;BME280;71612;44.776;20.472;2023-08-06T12:51:38;98672.28;;;30.62;40.00
82041;BME280;71612;44.776;20.472;2023-08-06T12:54:04;98670.28;;;30.63;40.27
82041;BME280;71612;44.776;20.472;2023-08-06T12:56:29;98671.88;;;30.64;40.27
82041;BME280;71612;44.776;20.472;2023-08-06T12:58:55;98664.41;;;30.64;39.96
82041;BME280;71612;44.776;20.472;2023-08-06T13:01:20;98657.72;;;30.65;40.39
82041;BME280;71612;44.776;20.472;2023-08-06T13:03:45;98650.25;;;30.66;40.03
82041;BME280;71612;44.776;20.472;2023-08-06T13:06:11;98631.34;;;30.57;39.96